createdAt,value
2023-01-01T00:03:57.355Z,4151
2023-01-01T00:09:36.143Z,4149.5
2023-01-01T00:15:11.087Z,4151.7
2023-01-01T00:20:46.045Z,4150.8
2023-01-01T00:26:43.423Z,4151
2023-01-01T00:32:57.211Z,4149.3
2023-01-01T00:38:32.741Z,4147.8
2023-01-01T00:44:11.902Z,4147.6
2023-01-01T00:50:14.238Z,4149.1
2023-01-01T00:55:49.743Z,4146.3
2023-01-01T01:01:30.615Z,4147.8
2023-01-01T01:07:10.502Z,4147.5
2023-01-01T01:12:48.294Z,4147.8
2023-01-01T01:18:23.155Z,4147.5
2023-01-01T01:24:01.961Z,4147
2023-01-01T01:29:40.682Z,4147.3
2023-01-01T01:36:48.604Z,4147
2023-01-01T01:42:24.626Z,4147.6
2023-01-01T01:48:21.485Z,4142.9
2023-01-01T01:53:58.141Z,4147.1
2023-01-01T01:59:37.037Z,4145.5
2023-01-01T02:05:21.811Z,4143.3
2023-01-01T02:12:01.887Z,4144.8
2023-01-01T02:18:02.313Z,4144.3
2023-01-01T02:23:39.913Z,4143.4
2023-01-01T02:29:19.189Z,4140.6
2023-01-01T02:34:54.618Z,4143.4
2023-01-01T02:40:34.554Z,4140.9
2023-01-01T02:46:31.831Z,4141.9
2023-01-01T02:52:04.832Z,4143.3
2023-01-01T02:57:42.353Z,4141.8
2023-01-01T03:03:18.187Z,4141.9
2023-01-01T03:09:13.850Z,4140.8
2023-01-01T03:14:49.071Z,4142.4
2023-01-01T03:20:27.219Z,4140.6
2023-01-01T03:26:09.011Z,4143.1
2023-01-01T03:31:52.241Z,4142.1
2023-01-01T03:37:31.172Z,4140.4
2023-01-01T03:43:07.297Z,4139.8
2023-01-01T03:49:05.976Z,4138.3
2023-01-01T03:55:00.204Z,4140.3
2023-01-01T04:00:36.000Z,4139.6
2023-01-01T04:06:39.077Z,4140.8
2023-01-01T04:12:14.218Z,4141.3
2023-01-01T04:17:49.054Z,4138.6
2023-01-01T04:23:24.305Z,4141.6
2023-01-01T04:28:59.403Z,4136.9
2023-01-01T04:34:35.234Z,4139.6
2023-01-01T04:40:23.141Z,4136.1
2023-01-01T04:46:00.197Z,4135.7
2023-01-01T04:51:44.428Z,4134.6
2023-01-01T04:57:19.608Z,4138.4
2023-01-01T05:02:55.342Z,4135.1
2023-01-01T05:08:30.571Z,4134.1
2023-01-01T05:14:07.108Z,4131.4
2023-01-01T05:19:49.908Z,4135.2
2023-01-01T05:25:26.399Z,4135.2
2023-01-01T05:31:22.878Z,4133.9
2023-01-01T05:37:02.052Z,4132.9
2023-01-01T05:42:41.551Z,4132.2
2023-01-01T05:48:39.341Z,4132.2
2023-01-01T05:59:48.025Z,4130.7
2023-01-01T06:05:44.338Z,4133.7
2023-01-01T06:11:37.750Z,4130.9
2023-01-01T06:17:13.630Z,4135.6
2023-01-01T06:22:57.341Z,4130.5
2023-01-01T06:28:38.699Z,4128.4
2023-01-01T06:34:22.895Z,4127.2
2023-01-01T06:39:58.632Z,4127.7
2023-01-01T06:45:39.050Z,4126.7
2023-01-01T06:51:19.078Z,4129
2023-01-01T06:56:54.553Z,4127.9
2023-01-01T07:02:31.518Z,4127
2023-01-01T07:08:07.522Z,4126.4
2023-01-01T07:13:47.729Z,4129
2023-01-01T07:19:26.879Z,4126.5
2023-01-01T07:25:16.580Z,4126.7
2023-01-01T07:31:08.388Z,4128.5
2023-01-01T07:36:53.960Z,4126.4
2023-01-01T07:42:50.451Z,4123.5
2023-01-01T07:48:48.165Z,4122.2
2023-01-01T07:54:31.747Z,4133.9
2023-01-01T08:00:10.722Z,4135.2
2023-01-01T08:05:46.682Z,4146.8
2023-01-01T08:11:24.796Z,4188
2023-01-01T08:17:06.242Z,4140.1
2023-01-01T08:22:51.402Z,4139.6
2023-01-01T08:28:31.298Z,4141.3
2023-01-01T08:34:10.027Z,4143.6
2023-01-01T08:39:45.278Z,4144.5
2023-01-01T08:45:30.778Z,4149.1
2023-01-01T08:51:08.690Z,4160.5
2023-01-01T08:56:50.184Z,4194.7
2023-01-01T09:02:27.869Z,4190.5
2023-01-01T09:08:03.527Z,4184.5
2023-01-01T09:13:38.967Z,4200.6
2023-01-01T09:19:41.539Z,4199.6
2023-01-01T09:25:16.689Z,4193.9
2023-01-01T09:30:58.276Z,4196
2023-01-01T09:36:38.291Z,4199.9
2023-01-01T09:42:20.887Z,4185.5
2023-01-01T09:48:18.262Z,4190.3
2023-01-01T09:53:59.752Z,4204.2
2023-01-01T10:00:05.247Z,4202.6
2023-01-01T10:06:23.802Z,4208.8
2023-01-01T10:13:00.717Z,4205.9
2023-01-01T10:18:36.950Z,4205.4
2023-01-01T10:24:13.136Z,4185.8
2023-01-01T10:30:05.654Z,4215.1
2023-01-01T10:35:41.259Z,4208.6
2023-01-01T10:41:21.709Z,4212.3
2023-01-01T10:47:18.996Z,4206.1
2023-01-01T10:52:53.063Z,4207.3
2023-01-01T10:58:37.410Z,4207.3
2023-01-01T11:04:21.611Z,4205.8
2023-01-01T11:10:27.065Z,4201.1
2023-01-01T11:16:01.964Z,4212.8
2023-01-01T11:21:40.332Z,4214.6
2023-01-01T11:27:29.240Z,4199.4
2023-01-01T11:33:09.582Z,4200.4
2023-01-01T11:38:46.824Z,4209.3
2023-01-01T11:44:23.540Z,4204.9
2023-01-01T11:50:07.183Z,4215.5
2023-01-01T11:55:42.941Z,4211.6
2023-01-01T12:01:19.797Z,4204.8
2023-01-01T12:06:55.364Z,4207.4
2023-01-01T12:12:31.347Z,4219.8
2023-01-01T12:18:07.101Z,4213
2023-01-01T12:23:50.158Z,4200.2
2023-01-01T12:29:28.723Z,4202.2
2023-01-01T12:35:15.254Z,4196.9
2023-01-01T12:40:53.530Z,4207.8
2023-01-01T12:46:51.648Z,4213.6
2023-01-01T12:52:28.003Z,4217.3
2023-01-01T12:58:03.702Z,4214.3
2023-01-01T13:03:39.258Z,4213.6
2023-01-01T13:09:15.672Z,4222.2
2023-01-01T13:14:55.701Z,4208.9
2023-01-01T13:20:30.681Z,4230.2
2023-01-01T13:26:07.487Z,4213.6
2023-01-01T13:31:44.275Z,4215.6
2023-01-01T13:37:20.197Z,4221.8
2023-01-01T13:43:08.771Z,4218.3
2023-01-01T13:49:05.952Z,4220.5
2023-01-01T13:54:48.518Z,4217.3
2023-01-01T14:00:33.924Z,4212
2023-01-01T14:06:18.362Z,4216.3
2023-01-01T14:12:14.981Z,4217.8
2023-01-01T14:17:59.754Z,4210.4
2023-01-01T14:23:35.345Z,4208.3
2023-01-01T14:29:16.086Z,4211.3
2023-01-01T14:34:51.535Z,4209.3
2023-01-01T14:40:26.894Z,4206.6
2023-01-01T14:46:13.035Z,4214.6
2023-01-01T14:51:51.234Z,4210.9
2023-01-01T14:57:30.632Z,4203.9
2023-01-01T15:03:27.530Z,4203.6
2023-01-01T15:09:17.566Z,4203.6
2023-01-01T15:15:19.350Z,4209.4
2023-01-01T15:20:58.265Z,4201.4
2023-01-01T15:26:51.542Z,4205.8
2023-01-01T15:32:39.333Z,4208.6
2023-01-01T15:38:19.673Z,4206.9
2023-01-01T15:44:42.529Z,4201.7
2023-01-01T15:50:20.419Z,4206.1
2023-01-01T15:56:04.805Z,4202.9
2023-01-01T16:01:47.729Z,4202.1
2023-01-01T16:07:31.391Z,4202.7
2023-01-01T16:13:19.158Z,4199.9
2023-01-01T16:18:55.409Z,4193.5
2023-01-01T16:24:31.823Z,4193.2
2023-01-01T16:30:23.996Z,4192.7
2023-01-01T16:35:59.538Z,4189.2
2023-01-01T16:41:42.959Z,4191
2023-01-01T16:47:40.373Z,4189.7
2023-01-01T16:53:18.472Z,4190.7
2023-01-01T16:59:04.857Z,4188.2
2023-01-01T17:04:49.220Z,4193.5
2023-01-01T17:10:24.407Z,4186.5
2023-01-01T17:16:01.942Z,4189.3
2023-01-01T17:21:37.914Z,4187
2023-01-01T17:27:13.272Z,4184.1
2023-01-01T17:32:48.388Z,4188.5
2023-01-01T17:38:23.495Z,4186
2023-01-01T17:43:59.045Z,4185.3
2023-01-01T17:49:34.151Z,4186
2023-01-01T17:55:09.423Z,4184.8
2023-01-01T18:00:47.651Z,4183.6
2023-01-01T18:06:25.805Z,4185.2
2023-01-01T18:12:00.944Z,4181.8
2023-01-01T18:17:36.719Z,4183.3
2023-01-01T18:23:12.134Z,4180.6
2023-01-01T18:28:47.374Z,4181.5
2023-01-01T18:34:23.170Z,4178.8
2023-01-01T18:39:58.860Z,4178.5
2023-01-01T18:45:34.981Z,4181.1
2023-01-01T18:51:10.841Z,4180.3
2023-01-01T18:56:46.483Z,4182.5
2023-01-01T19:02:23.375Z,4180.5
2023-01-01T19:07:59.992Z,4179.3
2023-01-01T19:13:35.338Z,4180.3
2023-01-01T19:19:14.407Z,4181.1
2023-01-01T19:24:52.515Z,4181.1
2023-01-01T19:30:38.309Z,4179
2023-01-01T19:36:13.092Z,4177.5
2023-01-01T19:41:49.183Z,4176.1
2023-01-01T19:47:24.596Z,4178.5
2023-01-01T19:53:00.130Z,4178.5
2023-01-01T19:58:37.116Z,4178.3
2023-01-01T20:04:14.377Z,4178.3
2023-01-01T20:09:49.984Z,4176.4
2023-01-01T20:15:26.038Z,4177.5
2023-01-01T20:21:01.930Z,4177.1
2023-01-01T20:26:37.172Z,4176.3
2023-01-01T20:32:14.308Z,4176.8
2023-01-01T20:37:54.485Z,4176.6
2023-01-01T20:43:30.855Z,4175.1
2023-01-01T20:49:28.293Z,4172.9
2023-01-01T20:55:01.574Z,4174.1
2023-01-01T21:00:37.748Z,4176.9
2023-01-01T21:06:26.063Z,4173.1
2023-01-01T21:12:01.906Z,4172.6
2023-01-01T21:17:39.475Z,4173.4
2023-01-01T21:23:15.520Z,4172.4
2023-01-01T21:28:50.856Z,4173.8
2023-01-01T21:34:26.150Z,4172.6
2023-01-01T21:40:02.154Z,4172.4
2023-01-01T21:45:38.346Z,4170.1
2023-01-01T21:51:14.980Z,4173.3
2023-01-01T21:56:51.779Z,4170.4
2023-01-01T22:02:30.392Z,4172.4
2023-01-01T22:08:07.527Z,4171.3
2023-01-01T22:13:42.560Z,4172.8
2023-01-01T22:19:18.193Z,4171.4
2023-01-01T22:24:54.571Z,4172.8
2023-01-01T22:30:30.846Z,4170.2
2023-01-01T22:36:06.103Z,4169.6
2023-01-01T22:41:41.435Z,4171.4
2023-01-01T22:47:38.959Z,4167.1
2023-01-01T22:53:12.255Z,4168.9
2023-01-01T22:58:58.629Z,4168.7
2023-01-01T23:04:34.710Z,4168.4
2023-01-01T23:10:12.068Z,4168.6
2023-01-01T23:15:57.184Z,4167.6
2023-01-01T23:21:34.838Z,4169.1
2023-01-01T23:27:10.431Z,4168.1
2023-01-01T23:32:45.459Z,4168.9
2023-01-01T23:38:20.724Z,4166.1
2023-01-01T23:43:56.262Z,4167.7
2023-01-01T23:49:53.396Z,4163.2
2023-01-01T23:55:26.678Z,4162.9
